East Hampstead, New Hampshire
Current Conditions -  °F | °C
As of 11:54 AM on Friday 24 Oct 2014 (Local Time) from KLWM Reporting Station
Overcast Overcast  
Wind Chill: 11°   Ceiling: 1900
Heat Index: 11°   Visibility: 10mi
Dew Point:   Wind: 7mph
Humidity: 83%   Direction: 310°NW
Pressure: 29.72"   Gusts: NA
Location:  42.89°N, 71.14°W
Report Text: KLWM 241554Z 31006KT 10SM OVC019 11/08 A2972 RMK AO2 SLP065 T01110083
Loading
Personal Weather Stations






























Interactive Weather Map
Tropical Storm Tracking
New forecast layout! Learn more

10-Day Weather Forecast

Advertisements
Track Severe Weather on mobile